createdAt,value
2023-01-19T00:00:18.124Z,96515.97
2023-01-19T00:02:26.073Z,96523.22
2023-01-19T00:04:36.516Z,96520.59
2023-01-19T00:06:44.314Z,96524.06
2023-01-19T00:08:53.003Z,96522.38
2023-01-19T00:11:01.212Z,96527.91
2023-01-19T00:13:09.085Z,96525.13
2023-01-19T00:15:17.055Z,96525.25
2023-01-19T00:17:25.416Z,96518.88
2023-01-19T00:19:33.564Z,96521.97
2023-01-19T00:21:44.044Z,96523.47
2023-01-19T00:23:52.903Z,96522.22
2023-01-19T00:26:00.799Z,96527.50
2023-01-19T00:28:09.032Z,96524.94
2023-01-19T00:30:17.207Z,96525.91
2023-01-19T00:32:24.996Z,96520.59
2023-01-19T00:34:36.925Z,96521.56
2023-01-19T00:36:47.458Z,96526.78
2023-01-19T00:38:55.465Z,96530.47
2023-01-19T00:41:03.966Z,96524.13
2023-01-19T00:43:09.153Z,96532.44
2023-01-19T00:45:18.743Z,96536.09
2023-01-19T00:47:26.589Z,96537.81
2023-01-19T00:49:34.551Z,96533.94
2023-01-19T00:51:42.313Z,96534.84
2023-01-19T00:53:52.762Z,96534.19
2023-01-19T00:56:00.673Z,96533.28
2023-01-19T00:58:09.896Z,96525.44
2023-01-19T01:00:21.491Z,96534.31
2023-01-19T01:02:30.089Z,96531.72
2023-01-19T01:04:38.251Z,96540.53
2023-01-19T01:06:46.125Z,96537.75
2023-01-19T01:08:57.446Z,96541.91
2023-01-19T01:11:05.369Z,96541.97
2023-01-19T01:13:20.345Z,96539.41
2023-01-19T01:15:30.643Z,96544.91
2023-01-19T01:17:47.715Z,96545.63
2023-01-19T01:19:57.231Z,96545.50
2023-01-19T01:22:05.347Z,96544.56
2023-01-19T01:24:16.418Z,96539.78
2023-01-19T01:26:26.363Z,96541.66
2023-01-19T01:28:35.310Z,96545.31
2023-01-19T01:30:44.290Z,96556.88
2023-01-19T01:32:52.977Z,96545.66
2023-01-19T01:35:01.038Z,96554.28
2023-01-19T01:37:09.856Z,96560.53
2023-01-19T01:39:20.323Z,96550.38
2023-01-19T01:41:28.928Z,96552.78
2023-01-19T01:43:49.366Z,96557.38
2023-01-19T01:45:58.033Z,96558.34
2023-01-19T01:48:11.675Z,96554.22
2023-01-19T01:50:22.744Z,96547.00
2023-01-19T01:52:33.344Z,96551.25
2023-01-19T01:54:45.513Z,96554.84
2023-01-19T01:56:56.494Z,96558.00
2023-01-19T01:59:08.166Z,96554.06
2023-01-19T02:01:28.956Z,96558.59
2023-01-19T02:03:37.664Z,96554.91
2023-01-19T02:05:46.211Z,96558.47
2023-01-19T02:08:12.471Z,96565.56
2023-01-19T02:10:35.590Z,96565.69
2023-01-19T02:12:55.713Z,96559.75
2023-01-19T02:15:03.521Z,96563.19
2023-01-19T02:17:11.403Z,96565.84
2023-01-19T02:19:25.095Z,96558.97
2023-01-19T02:21:39.720Z,96553.59
2023-01-19T02:23:53.061Z,96547.66
2023-01-19T02:26:02.626Z,96559.13
2023-01-19T02:28:10.933Z,96558.34
2023-01-19T02:30:19.775Z,96549.59
2023-01-19T02:32:28.050Z,96558.28
2023-01-19T02:34:36.029Z,96560.03
2023-01-19T02:36:52.254Z,96556.59
2023-01-19T02:39:04.935Z,96558.34
2023-01-19T02:41:16.136Z,96557.50
2023-01-19T02:43:25.482Z,96554.97
2023-01-19T02:45:33.693Z,96563.47
2023-01-19T02:47:42.695Z,96567.94
2023-01-19T02:49:57.868Z,96568.13
2023-01-19T02:52:06.177Z,96570.03
2023-01-19T02:54:36.629Z,96569.81
2023-01-19T02:56:56.426Z,96569.19
2023-01-19T02:59:10.571Z,96570.16
2023-01-19T03:01:28.136Z,96565.88
2023-01-19T03:03:46.480Z,96572.97
2023-01-19T03:06:01.734Z,96567.78
2023-01-19T03:08:19.876Z,96571.91
2023-01-19T03:10:39.277Z,96564.34
2023-01-19T03:12:53.639Z,96570.25
2023-01-19T03:15:11.074Z,96566.09
2023-01-19T03:17:20.930Z,96565.94
2023-01-19T03:19:32.458Z,96565.94
2023-01-19T03:21:43.786Z,96565.03
2023-01-19T03:23:53.090Z,96561.28
2023-01-19T03:26:07.855Z,96565.41
2023-01-19T03:28:17.515Z,96570.00
2023-01-19T03:30:29.107Z,96571.69
2023-01-19T03:32:41.163Z,96570.84
2023-01-19T03:34:51.300Z,96577.03
2023-01-19T03:37:03.421Z,96572.69
2023-01-19T03:39:14.980Z,96569.25
2023-01-19T03:41:27.026Z,96572.75
2023-01-19T03:43:36.020Z,96578.34
2023-01-19T03:45:44.971Z,96576.31
2023-01-19T03:47:53.039Z,96572.16
2023-01-19T03:50:01.621Z,96569.25
2023-01-19T03:52:09.499Z,96573.13
2023-01-19T03:54:18.891Z,96570.56
2023-01-19T03:56:29.328Z,96567.22
2023-01-19T03:58:37.522Z,96576.81
2023-01-19T04:00:45.246Z,96574.94
2023-01-19T04:02:53.193Z,96572.41
2023-01-19T04:05:01.001Z,96578.59
2023-01-19T04:07:09.005Z,96578.72
2023-01-19T04:09:19.236Z,96581.19
2023-01-19T04:11:30.061Z,96573.59
2023-01-19T04:13:38.465Z,96571.66
2023-01-19T04:15:46.439Z,96576.69
2023-01-19T04:17:54.333Z,96572.53
2023-01-19T04:20:02.233Z,96578.66
2023-01-19T04:22:10.563Z,96576.88
2023-01-19T04:24:18.672Z,96583.00
2023-01-19T04:26:29.150Z,96586.38
2023-01-19T04:28:38.114Z,96577.88
2023-01-19T04:30:45.821Z,96587.38
2023-01-19T04:32:55.528Z,96589.16
2023-01-19T04:35:03.601Z,96589.84
2023-01-19T04:37:11.579Z,96582.91
2023-01-19T04:39:19.380Z,96583.91
2023-01-19T04:41:31.127Z,96593.22
2023-01-19T04:43:48.493Z,96590.56
2023-01-19T04:45:56.908Z,96587.06
2023-01-19T04:48:05.910Z,96588.81
2023-01-19T04:50:15.287Z,96595.03
2023-01-19T04:52:22.968Z,96591.44
2023-01-19T04:54:30.804Z,96586.91
2023-01-19T04:56:41.607Z,96587.59
2023-01-19T04:58:49.618Z,96601.94
2023-01-19T05:00:57.582Z,96592.97
2023-01-19T05:03:06.098Z,96597.41
2023-01-19T05:05:14.894Z,96600.03
2023-01-19T05:07:22.859Z,96606.06
2023-01-19T05:09:30.871Z,96606.16
2023-01-19T05:11:41.621Z,96607.88
2023-01-19T05:13:50.923Z,96610.38
2023-01-19T05:15:59.616Z,96610.53
2023-01-19T05:18:07.819Z,96607.78
2023-01-19T05:20:17.517Z,96610.38
2023-01-19T05:22:25.338Z,96616.22
2023-01-19T05:24:33.193Z,96620.03
2023-01-19T05:26:43.992Z,96624.28
2023-01-19T05:28:51.826Z,96633.81
2023-01-19T05:31:00.049Z,96628.59
2023-01-19T05:33:08.066Z,96635.19
2023-01-19T05:35:20.117Z,96635.38
2023-01-19T05:37:32.991Z,96640.66
2023-01-19T05:39:40.840Z,96640.44
2023-01-19T05:41:51.657Z,96644.19
2023-01-19T05:43:59.671Z,96643.53
2023-01-19T05:46:07.858Z,96636.59
2023-01-19T05:48:15.730Z,96642.91
2023-01-19T05:50:23.651Z,96647.78
2023-01-19T05:52:31.861Z,96645.28
2023-01-19T05:54:40.688Z,96647.16
2023-01-19T05:56:51.307Z,96643.81
2023-01-19T05:58:59.502Z,96651.47
2023-01-19T06:01:08.661Z,96646.13
2023-01-19T06:03:16.821Z,96650.63
2023-01-19T06:05:24.616Z,96651.66
2023-01-19T06:07:32.753Z,96654.19
2023-01-19T06:09:40.727Z,96646.38
2023-01-19T06:11:54.199Z,96650.91
2023-01-19T06:14:02.104Z,96651.81
2023-01-19T06:16:11.904Z,96651.88
2023-01-19T06:18:19.839Z,96650.91
2023-01-19T06:20:27.722Z,96658.84
2023-01-19T06:22:36.056Z,96656.19
2023-01-19T06:24:44.319Z,96656.31
2023-01-19T06:26:55.627Z,96659.00
2023-01-19T06:29:03.985Z,96658.91
2023-01-19T06:31:12.306Z,96660.63
2023-01-19T06:33:20.862Z,96657.94
2023-01-19T06:35:28.680Z,96663.13
2023-01-19T06:37:36.862Z,96666.56
2023-01-19T06:39:45.614Z,96661.59
2023-01-19T06:41:56.122Z,96662.41
2023-01-19T06:44:04.357Z,96663.00
2023-01-19T06:46:12.454Z,96664.09
2023-01-19T06:48:21.243Z,96667.63
2023-01-19T06:50:29.786Z,96657.31
2023-01-19T06:52:42.636Z,96674.47
2023-01-19T06:54:50.696Z,96665.47
2023-01-19T06:57:02.750Z,96669.91
2023-01-19T06:59:11.430Z,96677.34
2023-01-19T07:01:19.841Z,96672.00
2023-01-19T07:03:27.803Z,96676.91
2023-01-19T07:05:37.782Z,96673.84
2023-01-19T07:07:45.958Z,96681.41
2023-01-19T07:09:55.763Z,96685.66
2023-01-19T07:12:07.107Z,96682.53
2023-01-19T07:14:15.237Z,96693.59
2023-01-19T07:16:26.962Z,96690.44
2023-01-19T07:18:34.813Z,96699.94
2023-01-19T07:20:44.410Z,96693.88
2023-01-19T07:22:59.414Z,96706.44
2023-01-19T07:25:08.254Z,96703.50
2023-01-19T07:27:18.847Z,96712.31
2023-01-19T07:29:26.914Z,96716.59
2023-01-19T07:31:34.878Z,96715.38
2023-01-19T07:33:42.879Z,96717.06
2023-01-19T07:35:51.231Z,96720.56
2023-01-19T07:37:59.315Z,96719.28
2023-01-19T07:40:08.474Z,96729.28
2023-01-19T07:42:19.448Z,96727.09
2023-01-19T07:44:28.087Z,96734.28
2023-01-19T07:46:36.349Z,96735.75
2023-01-19T07:48:44.631Z,96739.00
2023-01-19T07:50:52.524Z,96738.88
2023-01-19T07:53:01.005Z,96750.75
2023-01-19T07:55:10.604Z,96737.94
2023-01-19T07:57:21.640Z,96747.31
2023-01-19T07:59:30.573Z,96750.22
2023-01-19T08:01:38.534Z,96752.63
2023-01-19T08:03:46.942Z,96751.66
2023-01-19T08:05:57.141Z,96751.25
2023-01-19T08:08:05.686Z,96755.19
2023-01-19T08:10:14.797Z,96754.38
2023-01-19T08:12:25.550Z,96760.47
2023-01-19T08:14:34.445Z,96766.53
2023-01-19T08:16:42.276Z,96761.41
2023-01-19T08:18:50.205Z,96754.06
2023-01-19T08:20:58.285Z,96758.59
2023-01-19T08:23:06.398Z,96767.03
2023-01-19T08:25:14.376Z,96769.69
2023-01-19T08:27:22.863Z,96772.47
2023-01-19T08:29:35.257Z,96776.81
2023-01-19T08:31:46.755Z,96782.13
2023-01-19T08:33:57.326Z,96778.22
2023-01-19T08:36:05.227Z,96781.22
2023-01-19T08:38:14.159Z,96781.59
2023-01-19T08:40:22.373Z,96782.88
2023-01-19T08:42:30.918Z,96785.22
2023-01-19T08:44:49.686Z,96782.81
2023-01-19T08:47:04.994Z,96786.75
2023-01-19T08:49:13.132Z,96792.09
2023-01-19T08:51:21.666Z,96793.19
2023-01-19T08:53:29.597Z,96796.91
2023-01-19T08:55:40.555Z,96791.06
2023-01-19T08:57:48.424Z,96798.56
2023-01-19T08:59:59.323Z,96796.34
2023-01-19T09:02:07.456Z,96797.53
2023-01-19T09:04:15.749Z,96799.28
2023-01-19T09:06:25.381Z,96803.88
2023-01-19T09:08:33.191Z,96797.66
2023-01-19T09:10:42.087Z,96799.66
2023-01-19T09:12:50.551Z,96800.66
2023-01-19T09:15:00.930Z,96797.56
2023-01-19T09:17:09.473Z,96790.81
2023-01-19T09:19:17.504Z,96798.78
2023-01-19T09:21:25.461Z,96801.97
2023-01-19T09:23:33.466Z,96840.28
2023-01-19T09:25:41.940Z,96852.38
2023-01-19T09:27:49.865Z,96874.41
2023-01-19T09:30:00.159Z,96852.38
2023-01-19T09:32:09.283Z,96831.44
2023-01-19T09:34:17.297Z,96826.19
2023-01-19T09:36:25.378Z,96826.97
2023-01-19T09:38:34.292Z,96823.00
2023-01-19T09:40:45.678Z,96821.59
2023-01-19T09:43:02.093Z,96823.97
2023-01-19T09:45:19.805Z,96812.97
2023-01-19T09:47:31.378Z,96822.75
2023-01-19T09:49:44.612Z,96826.91
2023-01-19T09:51:54.115Z,96825.63
2023-01-19T09:54:09.042Z,96820.88
2023-01-19T09:56:20.839Z,96818.41
2023-01-19T09:58:28.915Z,96813.25
2023-01-19T10:00:40.744Z,96812.31
2023-01-19T10:02:55.692Z,96817.50
2023-01-19T10:05:05.328Z,96809.19
2023-01-19T10:07:22.722Z,96808.69
2023-01-19T10:09:37.806Z,96818.31
2023-01-19T10:11:53.648Z,96815.69
2023-01-19T10:14:02.360Z,96816.13
2023-01-19T10:16:34.839Z,96815.25
2023-01-19T10:18:51.642Z,96823.78
2023-01-19T10:21:06.496Z,96804.47
2023-01-19T10:23:27.911Z,96808.47
2023-01-19T10:25:36.517Z,96817.28
2023-01-19T10:27:44.529Z,96810.56
2023-01-19T10:29:52.846Z,96816.69
2023-01-19T10:32:10.008Z,96796.72
2023-01-19T10:34:21.527Z,96803.97
2023-01-19T10:36:37.637Z,96806.59
2023-01-19T10:38:45.870Z,96802.72
2023-01-19T10:41:00.693Z,96800.72
2023-01-19T10:43:39.108Z,96800.53
2023-01-19T10:45:53.352Z,96796.38
2023-01-19T10:48:09.219Z,96800.09
2023-01-19T10:50:28.883Z,96791.50
2023-01-19T10:52:39.886Z,96793.75
2023-01-19T10:54:49.753Z,96795.63
2023-01-19T10:57:00.749Z,96795.69
2023-01-19T10:59:10.658Z,96791.13
2023-01-19T11:01:22.534Z,96784.28
2023-01-19T11:03:35.085Z,96789.28
2023-01-19T11:05:43.004Z,96785.50
2023-01-19T11:07:52.205Z,96784.97
2023-01-19T11:10:22.666Z,96784.19
2023-01-19T11:12:30.928Z,96778.56
2023-01-19T11:14:38.866Z,96773.81
2023-01-19T11:16:51.031Z,96782.22
2023-01-19T11:19:03.603Z,96785.59
2023-01-19T11:21:15.145Z,96775.09
2023-01-19T11:23:29.058Z,96788.78
2023-01-19T11:25:39.415Z,96782.88
2023-01-19T11:27:53.859Z,96782.44
2023-01-19T11:30:10.538Z,96777.31
2023-01-19T11:32:25.319Z,96778.03
2023-01-19T11:34:38.756Z,96777.19
2023-01-19T11:36:59.255Z,96780.34
2023-01-19T11:39:28.187Z,96780.19
2023-01-19T11:41:40.130Z,96779.88
2023-01-19T11:43:49.741Z,96778.22
2023-01-19T11:45:58.956Z,96776.94
2023-01-19T11:48:09.260Z,96768.94
2023-01-19T11:50:26.075Z,96770.22
2023-01-19T11:52:39.591Z,96764.25
2023-01-19T11:54:57.753Z,96751.97
2023-01-19T11:57:13.042Z,96753.31
2023-01-19T11:59:22.010Z,96753.41
2023-01-19T12:01:34.883Z,96752.41
2023-01-19T12:03:47.295Z,96754.75
2023-01-19T12:06:04.549Z,96755.34
2023-01-19T12:08:18.640Z,96759.22
2023-01-19T12:10:31.247Z,96752.50
2023-01-19T12:12:42.307Z,96743.78
2023-01-19T12:14:58.649Z,96753.84
2023-01-19T12:17:11.502Z,96741.56
2023-01-19T12:19:23.883Z,96746.00
2023-01-19T12:21:34.547Z,96752.44
2023-01-19T12:23:51.075Z,96752.44
2023-01-19T12:26:19.460Z,96752.03
2023-01-19T12:28:33.510Z,96759.25
2023-01-19T12:30:41.709Z,96761.53
2023-01-19T12:32:51.599Z,96750.19
2023-01-19T12:34:59.430Z,96748.13
2023-01-19T12:37:30.911Z,96750.78
2023-01-19T12:39:51.101Z,96752.03
2023-01-19T12:42:10.650Z,96754.16
2023-01-19T12:44:34.328Z,96760.72
2023-01-19T12:46:46.052Z,96753.44
2023-01-19T12:48:55.323Z,96761.09
2023-01-19T12:51:03.271Z,96760.25
2023-01-19T12:53:23.864Z,96767.22
2023-01-19T12:55:34.503Z,96769.44
2023-01-19T12:57:44.848Z,96776.16
2023-01-19T12:59:59.343Z,96773.72
2023-01-19T13:02:43.609Z,96773.34
2023-01-19T13:05:17.438Z,96770.13
2023-01-19T13:07:25.338Z,96763.19
2023-01-19T13:09:37.174Z,96767.22
2023-01-19T13:12:29.910Z,96774.03
2023-01-19T13:14:39.486Z,96768.03
2023-01-19T13:17:16.346Z,96769.91
2023-01-19T13:19:35.677Z,96757.00
2023-01-19T13:21:45.779Z,96767.34
2023-01-19T13:23:58.157Z,96765.00
2023-01-19T13:26:09.932Z,96771.78
2023-01-19T13:28:21.104Z,96770.84
2023-01-19T13:30:31.714Z,96762.41
2023-01-19T13:32:39.919Z,96769.22
2023-01-19T13:34:54.268Z,96765.69
2023-01-19T13:37:02.941Z,96775.59
2023-01-19T13:39:18.527Z,96767.22
2023-01-19T13:41:32.186Z,96771.13
2023-01-19T13:43:41.352Z,96768.56
2023-01-19T13:45:53.543Z,96770.84
2023-01-19T13:48:03.902Z,96773.38
2023-01-19T13:50:23.328Z,96776.59
2023-01-19T13:52:32.497Z,96772.53
2023-01-19T13:54:40.665Z,96779.63
2023-01-19T13:56:54.812Z,96779.72
2023-01-19T13:59:23.320Z,96784.47
2023-01-19T14:01:36.769Z,96790.72
2023-01-19T14:03:46.549Z,96787.09
2023-01-19T14:05:55.807Z,96788.22
2023-01-19T14:08:05.952Z,96791.06
2023-01-19T14:10:19.452Z,96789.91
2023-01-19T14:12:29.901Z,96791.84
2023-01-19T14:14:38.511Z,96792.78
2023-01-19T14:16:46.409Z,96789.69
2023-01-19T14:19:04.255Z,96792.81
2023-01-19T14:21:14.955Z,96792.38
2023-01-19T14:23:45.151Z,96785.00
2023-01-19T14:25:53.237Z,96785.88
2023-01-19T14:28:43.577Z,96786.69
2023-01-19T14:31:21.463Z,96776.94
2023-01-19T14:33:47.165Z,96782.44
2023-01-19T14:35:55.352Z,96784.41
2023-01-19T14:38:05.051Z,96786.94
2023-01-19T14:40:22.183Z,96786.75
2023-01-19T14:42:32.969Z,96787.66
2023-01-19T14:44:42.528Z,96786.63
2023-01-19T14:46:53.664Z,96783.53
2023-01-19T14:49:07.123Z,96784.47
2023-01-19T14:51:20.755Z,96783.00
2023-01-19T14:53:30.376Z,96780.19
2023-01-19T14:55:42.818Z,96782.50
2023-01-19T14:57:51.190Z,96786.34
2023-01-19T14:59:59.642Z,96777.31
2023-01-19T15:02:12.027Z,96780.00
2023-01-19T15:04:19.890Z,96793.84
2023-01-19T15:06:28.816Z,96785.56
2023-01-19T15:08:39.090Z,96787.16
2023-01-19T15:10:47.210Z,96790.75
2023-01-19T15:12:57.341Z,96791.13
2023-01-19T15:15:05.938Z,96783.03
2023-01-19T15:17:25.677Z,96785.78
2023-01-19T15:19:33.860Z,96781.66
2023-01-19T15:21:43.242Z,96781.41
2023-01-19T15:23:51.543Z,96782.97
2023-01-19T15:26:02.581Z,96784.78
2023-01-19T15:28:17.651Z,96785.78
2023-01-19T15:30:31.266Z,96786.50
2023-01-19T15:32:43.994Z,96782.84
2023-01-19T15:34:52.481Z,96790.25
2023-01-19T15:37:00.617Z,96787.44
2023-01-19T15:39:08.607Z,96784.16
2023-01-19T15:41:17.743Z,96778.66
2023-01-19T15:43:25.603Z,96778.59
2023-01-19T15:45:41.793Z,96780.97
2023-01-19T15:47:52.358Z,96780.34
2023-01-19T15:50:00.246Z,96775.44
2023-01-19T15:52:08.164Z,96780.56
2023-01-19T15:54:17.268Z,96777.13
2023-01-19T15:56:29.183Z,96782.09
2023-01-19T15:58:37.285Z,96778.72
2023-01-19T16:00:45.748Z,96780.31
2023-01-19T16:02:56.539Z,96779.94
2023-01-19T16:05:04.523Z,96778.09
2023-01-19T16:07:12.822Z,96776.09
2023-01-19T16:09:20.847Z,96778.31
2023-01-19T16:11:29.587Z,96779.81
2023-01-19T16:13:37.723Z,96784.03
2023-01-19T16:15:45.774Z,96777.88
2023-01-19T16:17:56.209Z,96783.16
2023-01-19T16:20:04.182Z,96779.81
2023-01-19T16:22:15.486Z,96782.19
2023-01-19T16:24:23.207Z,96781.78
2023-01-19T16:26:34.499Z,96787.84
2023-01-19T16:28:42.675Z,96780.19
2023-01-19T16:30:51.829Z,96770.22
2023-01-19T16:33:02.370Z,96776.22
2023-01-19T16:35:10.857Z,96779.69
2023-01-19T16:37:18.840Z,96771.75
2023-01-19T16:39:26.931Z,96774.47
2023-01-19T16:41:35.788Z,96785.25
2023-01-19T16:43:43.693Z,96783.47
2023-01-19T16:46:02.879Z,96779.41
2023-01-19T16:48:13.331Z,96781.03
2023-01-19T16:50:21.746Z,96780.19
2023-01-19T16:52:34.040Z,96783.97
2023-01-19T16:54:45.219Z,96779.94
2023-01-19T16:56:53.099Z,96782.03
2023-01-19T16:59:03.138Z,96783.34
2023-01-19T17:01:12.967Z,96791.13
2023-01-19T17:03:23.581Z,96790.47
2023-01-19T17:05:31.311Z,96789.47
2023-01-19T17:07:39.092Z,96793.53
2023-01-19T17:09:46.929Z,96787.66
2023-01-19T17:11:54.927Z,96794.16
2023-01-19T17:14:04.213Z,96791.25
2023-01-19T17:16:12.451Z,96794.09
2023-01-19T17:18:20.283Z,96785.59
2023-01-19T17:20:30.835Z,96783.97
2023-01-19T17:22:38.684Z,96794.59
2023-01-19T17:24:46.523Z,96789.78
2023-01-19T17:26:54.452Z,96791.56
2023-01-19T17:29:03.207Z,96782.03
2023-01-19T17:31:13.131Z,96794.59
2023-01-19T17:33:21.413Z,96791.13
2023-01-19T17:35:32.168Z,96797.03
2023-01-19T17:37:40.078Z,96787.59
2023-01-19T17:39:48.141Z,96787.94
2023-01-19T17:41:55.998Z,96796.88
2023-01-19T17:44:05.253Z,96797.66
2023-01-19T17:46:13.790Z,96795.34
2023-01-19T17:48:24.118Z,96799.13
2023-01-19T17:50:35.154Z,96794.09
2023-01-19T17:52:43.210Z,96797.56
2023-01-19T17:54:51.040Z,96795.81
2023-01-19T17:56:59.285Z,96799.13
2023-01-19T17:59:08.486Z,96800.31
2023-01-19T18:01:18.919Z,96802.41
2023-01-19T18:03:27.078Z,96799.44
2023-01-19T18:05:37.622Z,96806.16
2023-01-19T18:07:45.691Z,96799.41
2023-01-19T18:09:56.713Z,96802.88
2023-01-19T18:12:04.473Z,96802.50
2023-01-19T18:14:12.521Z,96797.97
2023-01-19T18:16:23.601Z,96801.25
2023-01-19T18:18:32.496Z,96804.00
2023-01-19T18:20:44.664Z,96807.78
2023-01-19T18:22:52.579Z,96802.56
2023-01-19T18:25:01.813Z,96800.94
2023-01-19T18:27:10.573Z,96801.81
2023-01-19T18:29:20.594Z,96798.94
2023-01-19T18:31:29.898Z,96804.59
2023-01-19T18:33:37.862Z,96810.41
2023-01-19T18:35:48.589Z,96800.56
2023-01-19T18:37:57.093Z,96807.63
2023-01-19T18:40:05.354Z,96808.47
2023-01-19T18:42:13.241Z,96803.13
2023-01-19T18:44:23.433Z,96801.44
2023-01-19T18:46:31.375Z,96805.56
2023-01-19T18:48:40.324Z,96803.78
2023-01-19T18:50:51.212Z,96804.47
2023-01-19T18:52:58.983Z,96796.72
2023-01-19T18:55:07.407Z,96804.97
2023-01-19T18:57:16.857Z,96806.69
2023-01-19T18:59:24.849Z,96805.09
2023-01-19T19:01:35.157Z,96805.09
2023-01-19T19:03:43.029Z,96799.00
2023-01-19T19:05:53.750Z,96799.16
2023-01-19T19:08:02.690Z,96796.41
2023-01-19T19:10:12.852Z,96806.16
2023-01-19T19:12:21.048Z,96800.84
2023-01-19T19:14:33.270Z,96798.31
2023-01-19T19:16:41.160Z,96801.22
2023-01-19T19:18:51.315Z,96798.84
2023-01-19T19:21:01.788Z,96804.47
2023-01-19T19:23:09.848Z,96799.09
2023-01-19T19:25:18.519Z,96802.69
2023-01-19T19:27:29.616Z,96804.47
2023-01-19T19:29:37.692Z,96799.66
2023-01-19T19:31:48.796Z,96795.38
2023-01-19T19:34:00.308Z,96791.50
2023-01-19T19:36:12.778Z,96790.75
2023-01-19T19:38:20.859Z,96794.22
2023-01-19T19:40:30.329Z,96797.75
2023-01-19T19:42:40.273Z,96795.38
2023-01-19T19:44:48.153Z,96793.50
2023-01-19T19:46:56.114Z,96795.28
2023-01-19T19:49:04.040Z,96787.47
2023-01-19T19:51:18.780Z,96790.00
2023-01-19T19:53:27.291Z,96793.28
2023-01-19T19:55:36.220Z,96798.84
2023-01-19T19:57:44.228Z,96800.94
2023-01-19T19:59:52.016Z,96802.50
2023-01-19T20:02:00.144Z,96805.34
2023-01-19T20:04:09.837Z,96807.03
2023-01-19T20:06:23.177Z,96801.34
2023-01-19T20:08:31.223Z,96799.34
2023-01-19T20:10:39.208Z,96805.41
2023-01-19T20:12:47.342Z,96797.56
2023-01-19T20:14:55.460Z,96801.25
2023-01-19T20:17:06.389Z,96807.16
2023-01-19T20:19:14.549Z,96809.09
2023-01-19T20:21:27.962Z,96810.56
2023-01-19T20:23:36.155Z,96819.94
2023-01-19T20:25:44.004Z,96817.97
2023-01-19T20:27:52.080Z,96822.22
2023-01-19T20:30:00.488Z,96820.84
2023-01-19T20:32:09.453Z,96820.75
2023-01-19T20:34:20.174Z,96818.06
2023-01-19T20:36:31.247Z,96824.75
2023-01-19T20:38:40.056Z,96825.59
2023-01-19T20:40:48.077Z,96821.28
2023-01-19T20:42:56.071Z,96821.91
2023-01-19T20:45:04.060Z,96828.75
2023-01-19T20:47:12.639Z,96832.13
2023-01-19T20:49:20.878Z,96831.34
2023-01-19T20:51:31.683Z,96833.75
2023-01-19T20:53:41.319Z,96844.09
2023-01-19T20:55:49.490Z,96843.00
2023-01-19T20:57:57.395Z,96839.53
2023-01-19T21:00:05.491Z,96840.69
2023-01-19T21:02:15.249Z,96837.94
2023-01-19T21:04:25.087Z,96843.13
2023-01-19T21:06:36.098Z,96844.00
2023-01-19T21:08:44.250Z,96845.53
2023-01-19T21:10:52.096Z,96848.13
2023-01-19T21:13:00.153Z,96852.22
2023-01-19T21:15:09.525Z,96854.00
2023-01-19T21:17:17.444Z,96861.63
2023-01-19T21:19:25.656Z,96863.16
2023-01-19T21:21:36.714Z,96863.22
2023-01-19T21:23:46.978Z,96859.06
2023-01-19T21:25:56.535Z,96867.34
2023-01-19T21:28:04.378Z,96873.00
2023-01-19T21:30:15.558Z,96874.13
2023-01-19T21:32:23.429Z,96876.22
2023-01-19T21:34:31.357Z,96872.81
2023-01-19T21:36:41.908Z,96869.06
2023-01-19T21:38:50.750Z,96871.84
2023-01-19T21:40:59.968Z,96876.31
2023-01-19T21:43:07.835Z,96876.44
2023-01-19T21:45:15.939Z,96874.16
2023-01-19T21:47:23.764Z,96872.22
2023-01-19T21:49:31.962Z,96878.44
2023-01-19T21:51:42.123Z,96879.22
2023-01-19T21:53:52.228Z,96870.69
2023-01-19T21:56:00.600Z,96872.31
2023-01-19T21:58:09.033Z,96876.53
2023-01-19T22:00:17.412Z,96871.22
2023-01-19T22:02:38.013Z,96875.91
2023-01-19T22:04:46.539Z,96876.22
2023-01-19T22:06:57.351Z,96871.16
2023-01-19T22:09:05.558Z,96870.59
2023-01-19T22:11:15.592Z,96869.66
2023-01-19T22:13:24.599Z,96873.97
2023-01-19T22:15:32.519Z,96878.09
2023-01-19T22:17:40.278Z,96880.75
2023-01-19T22:19:48.159Z,96875.91
2023-01-19T22:21:58.645Z,96878.41
2023-01-19T22:24:07.679Z,96882.97
2023-01-19T22:26:32.178Z,96884.88
2023-01-19T22:28:40.595Z,96885.03
2023-01-19T22:30:48.578Z,96889.25
2023-01-19T22:32:56.780Z,96885.75
2023-01-19T22:35:04.614Z,96886.47
2023-01-19T22:37:15.114Z,96885.34
2023-01-19T22:39:22.949Z,96882.09
2023-01-19T22:41:33.303Z,96883.25
2023-01-19T22:43:41.555Z,96881.22
2023-01-19T22:45:49.399Z,96888.13
2023-01-19T22:47:57.158Z,96893.41
2023-01-19T22:50:05.055Z,96892.56
2023-01-19T22:52:15.432Z,96900.94
2023-01-19T22:54:24.198Z,96890.59
2023-01-19T22:56:36.110Z,96882.56
2023-01-19T22:58:44.702Z,96885.88
2023-01-19T23:00:52.672Z,96886.44
2023-01-19T23:03:00.735Z,96889.41
2023-01-19T23:05:10.142Z,96889.56
2023-01-19T23:07:20.761Z,96891.56
2023-01-19T23:09:28.671Z,96887.41
2023-01-19T23:11:38.720Z,96889.72
2023-01-19T23:13:49.236Z,96891.03
2023-01-19T23:15:57.362Z,96885.13
2023-01-19T23:18:05.296Z,96893.78
2023-01-19T23:20:17.235Z,96889.44
2023-01-19T23:22:27.958Z,96891.88
2023-01-19T23:24:35.839Z,96900.34
2023-01-19T23:26:43.812Z,96886.72
2023-01-19T23:28:57.194Z,96893.94
2023-01-19T23:31:16.371Z,96895.72
2023-01-19T23:33:24.362Z,96885.13
2023-01-19T23:35:32.292Z,96892.63
2023-01-19T23:37:42.963Z,96895.63
2023-01-19T23:39:50.699Z,96899.47
2023-01-19T23:41:58.549Z,96902.50
2023-01-19T23:44:07.780Z,96899.81
2023-01-19T23:46:19.374Z,96910.09
2023-01-19T23:48:27.309Z,96914.47
2023-01-19T23:50:35.204Z,96920.41
2023-01-19T23:52:45.639Z,96911.72
2023-01-19T23:54:54.417Z,96919.94
2023-01-19T23:57:02.412Z,96919.38
2023-01-19T23:59:12.176Z,96924.66
